Map

Track Data

SID SEASON NUMBER BASIN SUBBASIN NAME ISO_TIME NATURE LAT LON WMO_WIND WMO_PRES WMO_AGENCY TRACK_TYPE DIST2LAND LANDFALL IFLAG USA_AGENCY USA_ATCF_ID USA_LAT USA_LON USA_RECORD USA_STATUS USA_WIND USA_PRES USA_SSHS USA_R34_NE USA_R34_SE USA_R34_SW USA_R34_NW USA_R50_NE USA_R50_SE USA_R50_SW USA_R50_NW USA_R64_NE USA_R64_SE USA_R64_SW USA_R64_NW USA_POCI USA_ROCI USA_RMW USA_EYE TOKYO_LAT TOKYO_LON TOKYO_GRADE TOKYO_WIND TOKYO_PRES TOKYO_R50_DIR TOKYO_R50_LONG TOKYO_R50_SHORT TOKYO_R30_DIR TOKYO_R30_LONG TOKYO_R30_SHORT TOKYO_LAND CMA_LAT CMA_LON CMA_CAT CMA_WIND CMA_PRES HKO_LAT HKO_LON HKO_CAT HKO_WIND HKO_PRES NEWDELHI_LAT NEWDELHI_LON NEWDELHI_GRADE NEWDELHI_WIND NEWDELHI_PRES NEWDELHI_CI NEWDELHI_DP NEWDELHI_POCI REUNION_LAT REUNION_LON REUNION_TYPE REUNION_WIND REUNION_PRES REUNION_TNUM REUNION_CI REUNION_RMW REUNION_R34_NE REUNION_R34_SE REUNION_R34_SW REUNION_R34_NW REUNION_R50_NE REUNION_R50_SE REUNION_R50_SW REUNION_R50_NW REUNION_R64_NE REUNION_R64_SE REUNION_R64_SW REUNION_R64_NW BOM_LAT BOM_LON BOM_TYPE BOM_WIND BOM_PRES BOM_TNUM BOM_CI BOM_RMW BOM_R34_NE BOM_R34_SE BOM_R34_SW BOM_R34_NW BOM_R50_NE BOM_R50_SE BOM_R50_SW BOM_R50_NW BOM_R64_NE BOM_R64_SE BOM_R64_SW BOM_R64_NW BOM_ROCI BOM_POCI BOM_EYE BOM_POS_METHOD BOM_PRES_METHOD NADI_LAT NADI_LON NADI_CAT NADI_WIND NADI_PRES WELLINGTON_LAT WELLINGTON_LON WELLINGTON_WIND WELLINGTON_PRES DS824_LAT DS824_LON DS824_STAGE DS824_WIND DS824_PRES TD9636_LAT TD9636_LON TD9636_STAGE TD9636_WIND TD9636_PRES TD9635_LAT TD9635_LON TD9635_WIND TD9635_PRES TD9635_ROCI NEUMANN_LAT NEUMANN_LON NEUMANN_CLASS NEUMANN_WIND NEUMANN_PRES MLC_LAT MLC_LON MLC_CLASS MLC_WIND MLC_PRES USA_GUST BOM_GUST BOM_GUST_PER REUNION_GUST REUNION_GUST_PER USA_SEAHGT USA_SEARAD_NE USA_SEARAD_SE USA_SEARAD_SW USA_SEARAD_NW STORM_SPEED STORM_DIR
1933253N19122 1933 52 WP MM NOT_NAMED 1933-09-10 10:00:00 NR 19.3000 121.900 main 102 91 __________O___ -1 19.3000 121.900 7 7 272
1933253N19122 1933 52 WP MM NOT_NAMED 1933-09-10 12:00:00 NR 19.3085 121.637 main 91 84 __________P___ -1 19.3085 121.637 7 7 272
1933253N19122 1933 52 WP MM NOT_NAMED 1933-09-10 15:00:00 NR 19.3240 121.240 main 84 78 __________P___ -1 19.3240 121.240 7 8 273
1933253N19122 1933 52 WP MM NOT_NAMED 1933-09-10 18:00:00 NR 19.3474 120.841 main 78 78 __________P___ -1 19.3474 120.841 7 8 275
1933253N19122 1933 52 WP MM NOT_NAMED 1933-09-10 21:00:00 NR 19.3840 120.436 main 98 98 __________P___ -1 19.3840 120.436 7 8 276
1933253N19122 1933 52 WP MM NOT_NAMED 1933-09-10 22:00:00 NR 19.4000 120.300 main 103 103 __________O___ -1 19.4000 120.300 3 8 278
1933253N19122 1933 52 WP MM NOT_NAMED 1933-09-11 00:00:00 NR 19.4384 120.025 main 122 122 __________P___ -1 19.4384 120.025 3 8 279
1933253N19122 1933 52 WP MM NOT_NAMED 1933-09-11 03:00:00 NR 19.5087 119.606 main 161 161 __________P___ -1 19.5087 119.606 3 8 281
1933253N19122 1933 52 WP MM NOT_NAMED 1933-09-11 06:00:00 NR 19.5888 119.180 main 199 199 __________P___ -1 19.5888 119.180 3 8 281
1933253N19122 1933 52 WP MM NOT_NAMED 1933-09-11 09:00:00 NR 19.6724 118.746 main 247 247 __________P___ -1 19.6724 118.746 3 8 281
1933253N19122 1933 52 WP MM NOT_NAMED 1933-09-11 10:00:00 NR 19.7000 118.600 main 255 255 __________O___ -1 19.7000 118.600 4 8 280
1933253N19122 1933 52 WP MM NOT_NAMED 1933-09-11 12:00:00 NR 19.7470 118.316 main 282 287 __________P___ -1 19.7470 118.316 4 8 280
1933253N19122 1933 52 WP MM NOT_NAMED 1933-09-11 15:00:00 NR 19.8176 117.884 main 324 324 __________P___ -1 19.8176 117.884 4 8 280
1933253N19122 1933 52 WP MM NOT_NAMED 1933-09-11 18:00:00 NR 19.8913 117.437 main 348 326 __________P___ -1 19.8913 117.437 4 9 280
1933253N19122 1933 52 WP MM NOT_NAMED 1933-09-11 21:00:00 NR 19.9714 116.965 main 326 319 __________P___ -1 19.9714 116.965 4 9 280
1933253N19122 1933 52 WP MM NOT_NAMED 1933-09-11 22:00:00 NR 20.0000 116.800 main 319 299 __________O___ -1 20.0000 116.800 4 10 281
1933253N19122 1933 52 WP MM NOT_NAMED 1933-09-12 00:00:00 NR 20.0659 116.464 main 299 277 __________P___ -1 20.0659 116.464 4 10 282
1933253N19122 1933 52 WP MM NOT_NAMED 1933-09-12 03:00:00 NR 20.1714 115.935 main 277 250 __________P___ -1 20.1714 115.935 4 10 282
1933253N19122 1933 52 WP MM NOT_NAMED 1933-09-12 06:00:00 NR 20.2764 115.379 main 250 218 __________P___ -1 20.2764 115.379 4 11 281
1933253N19122 1933 52 WP MM NOT_NAMED 1933-09-12 09:00:00 NR 20.3719 114.798 main 218 214 __________P___ -1 20.3719 114.798 4 11 280
1933253N19122 1933 52 WP MM NOT_NAMED 1933-09-12 10:00:00 NR 20.4000 114.600 main 214 199 __________O___ -1 20.4000 114.600 4 12 278
1933253N19122 1933 52 WP MM NOT_NAMED 1933-09-12 12:00:00 NR 20.4502 114.185 main 199 164 __________P___ -1 20.4502 114.185 4 12 277
1933253N19122 1933 52 WP MM NOT_NAMED 1933-09-12 15:00:00 NR 20.5129 113.543 main 164 137 __________P___ -1 20.5129 113.543 4 12 275
1933253N19122 1933 52 WP MM NOT_NAMED 1933-09-12 18:00:00 NR 20.5604 112.902 main 137 123 __________P___ -1 20.5604 112.902 4 12 274
1933253N19122 1933 52 WP MM NOT_NAMED 1933-09-12 21:00:00 NR 20.5926 112.292 main 123 113 __________P___ -1 20.5926 112.292 4 11 273
1933253N19122 1933 52 WP MM NOT_NAMED 1933-09-12 22:00:00 NR 20.6000 112.100 main 113 98 __________O___ -1 20.6000 112.100 4 10 274
1933253N19122 1933 52 WP MM NOT_NAMED 1933-09-13 00:00:00 NR 20.6265 111.741 main 98 76 __________P___ -1 20.6265 111.741 4 10 274
1933253N19122 1933 52 WP MM NOT_NAMED 1933-09-13 03:00:00 NR 20.6546 111.241 main 76 38 __________P___ -1 20.6546 111.241 4 9 272
1933253N19122 1933 52 WP MM NOT_NAMED 1933-09-13 06:00:00 NR 20.6575 110.778 main 38 0 __________P___ -1 20.6575 110.778 4 8 268
1933253N19122 1933 52 WP MM NOT_NAMED 1933-09-13 09:00:00 NR 20.6224 110.341 main 0 0 __________P___ -1 20.6224 110.341 4 8 264
1933253N19122 1933 52 WP MM NOT_NAMED 1933-09-13 10:00:00 NR 20.6000 110.200 main 0 0 __________O___ -1 20.6000 110.200 4 9 259
1933253N19122 1933 52 WP MM NOT_NAMED 1933-09-13 12:00:00 NR 20.5369 109.884 main 0 0 __________P___ -1 20.5369 109.884 4 9 255
1933253N19122 1933 52 WP MM NOT_NAMED 1933-09-13 15:00:00 NR 20.4046 109.429 main 43 43 __________P___ -1 20.4046 109.429 4 9 250
1933253N19122 1933 52 WP MM NOT_NAMED 1933-09-13 18:00:00 NR 20.2407 109.022 main 54 54 __________P___ -1 20.2407 109.022 4 8 244
1933253N19122 1933 52 WP MM NOT_NAMED 1933-09-13 21:00:00 NR 20.0608 108.689 main 68 59 __________P___ -1 20.0608 108.689 4 7 239
1933253N19122 1933 52 WP MM NOT_NAMED 1933-09-13 22:00:00 NR 20.0000 108.600 main 64 59 __________O___ -1 20.0000 108.600 4 5 231
1933253N19122 1933 52 WP MM NOT_NAMED 1933-09-14 00:00:00 NR 19.8886 108.468 main 59 45 __________P___ -1 19.8886 108.468 4 4 220
1933253N19122 1933 52 WP MM NOT_NAMED 1933-09-14 03:00:00 NR 19.7156 108.345 main 53 38 __________P___ -1 19.7156 108.345 4 4 207
1933253N19122 1933 52 WP MM NOT_NAMED 1933-09-14 06:00:00 NR 19.5383 108.277 main 38 38 __________P___ -1 19.5383 108.277 4 4 198
1933253N19122 1933 52 WP MM NOT_NAMED 1933-09-14 09:00:00 NR 19.3594 108.222 main 43 41 __________P___ -1 19.3594 108.222 4 4 195
1933253N19122 1933 52 WP MM NOT_NAMED 1933-09-14 10:00:00 NR 19.3000 108.200 main 41 41 __________O___ -1 19.3000 108.200 4 4 202
1933253N19122 1933 52 WP MM NOT_NAMED 1933-09-14 12:00:00 NR 19.1727 108.138 main 53 53 __________P___ -1 19.1727 108.138 4 4 206
1933253N19122 1933 52 WP MM NOT_NAMED 1933-09-14 15:00:00 NR 18.9816 108.039 main 71 71 __________P___ -1 18.9816 108.039 4 4 209
1933253N19122 1933 52 WP MM NOT_NAMED 1933-09-14 18:00:00 NR 18.8015 107.920 main 84 84 __________P___ -1 18.8015 107.920 4 4 218
1933253N19122 1933 52 WP MM NOT_NAMED 1933-09-14 21:00:00 NR 18.6448 107.763 main 94 94 __________P___ -1 18.6448 107.763 4 4 226
1933253N19122 1933 52 WP MM NOT_NAMED 1933-09-14 22:00:00 NR 18.6000 107.700 main 105 105 __________O___ -1 18.6000 107.700 4 5 238
1933253N19122 1933 52 WP MM NOT_NAMED 1933-09-15 00:00:00 NR 18.5219 107.556 main 116 100 __________P___ -1 18.5219 107.556 4 5 246
1933253N19122 1933 52 WP MM NOT_NAMED 1933-09-15 03:00:00 NR 18.4299 107.303 main 100 71 __________P___ -1 18.4299 107.303 4 5 253
1933253N19122 1933 52 WP MM NOT_NAMED 1933-09-15 06:00:00 NR 18.3625 107.015 main 71 38 __________P___ -1 18.3625 107.015 4 6 258
1933253N19122 1933 52 WP MM NOT_NAMED 1933-09-15 09:00:00 NR 18.3133 106.706 main 38 30 __________P___ -1 18.3133 106.706 4 6 261
1933253N19122 1933 52 WP MM NOT_NAMED 1933-09-15 10:00:00 NR 18.3000 106.600 main 30 15 __________O___ -1 18.3000 106.600 4 6 263
1933253N19122 1933 52 WP MM NOT_NAMED 1933-09-15 12:00:00 NR 18.2767 106.387 main 15 0 __________P___ -1 18.2767 106.387 4 6 264
1933253N19122 1933 52 WP MM NOT_NAMED 1933-09-15 15:00:00 NR 18.2484 106.063 main 0 0 __________P___ -1 18.2484 106.063 4 6 265
1933253N19122 1933 52 WP MM NOT_NAMED 1933-09-15 18:00:00 NR 18.2258 105.737 main 0 0 __________P___ -1 18.2258 105.737 4 6 266
1933253N19122 1933 52 WP MM NOT_NAMED 1933-09-15 21:00:00 NR 18.2063 105.409 main 0 0 __________P___ -1 18.2063 105.409 4 6 266
1933253N19122 1933 52 WP MM NOT_NAMED 1933-09-15 22:00:00 NR 18.2000 105.300 main 0 __________O___ -1 18.2000 105.300 4 6 267

Digital Typhoon Data and Search

About IBTrACS Database

This database is a web-friendly format of International Best Track Archive for Climate Stewardship (IBTrACS), a global best track data archive curated by NOAA dating back to 1842.

Updated: 2021-10-19